Accueil
METAR-TAF:

METAR-TAF

Aéroports :

Aéroport international de Kosrae

Kosrae, Micronésie

latitude: 05-21N, longitude: 162-57E, altitude: 3 m

Observation

Le bulletin a été fait il y a 47 minutes, à 11:55 UTC
Vent 5 kt de est/sud-est
Température 26°C
Humidité 94%
Pression 1010 hPa
Visibilité: 16.1 km
Nuages épars à une hauteur de 1800 ft
Nuages épars à une hauteur de 30000 ft

METAR: PTSA 171155Z 11005KT 10SM SCT018 SCT300 26/25 A2983 RMK FIRST

Heure: 23:42 (12:42 UTC)

Prévision

Le bulletin a été fait il y a 7 heures et 19 minutes, à 05:23 UTC
Prévision valable du 17 à 06 UTC au 18 à 06 UTC
Vent 8 kt de nord-ouest
Visibilité: 10 km
Nuages épars à une hauteur de 1600 ft
Nuages fragmentés à une hauteur de 13000 ft
averses à proximité

TAF: PTSA 170523Z 1706/1806 31008KT P6SM VCSH SCT016 BKN130

Observations et prévisions météorologiques de plus de 4000 aéroports (messages METAR et TAF).

Les stations disponibles sont représentées par des disques jaunes et rouges sur la carte.

Passer la souris dessus pour voir le nom de la station.

Cliquer dessus pour voir les observations et prévisions météorologiques.

Pour changer de carte: cliquez sur les boutons verts avec une croix noire pour zoomer, sur le bouton vert avec un tiret pour effectuer un zoom arrière, ou sur les flèches vertes pour les cartes adjacentes.


METAR-TAF: